createdAt,value
2022-10-13T00:01:33.380Z,9.45
2022-10-13T00:04:03.135Z,9.50
2022-10-13T00:06:32.837Z,8.53
2022-10-13T00:09:03.446Z,9.52
2022-10-13T00:11:33.846Z,10.32
2022-10-13T00:14:07.716Z,11.10
2022-10-13T00:16:37.459Z,10.25
2022-10-13T00:19:08.939Z,10.10
2022-10-13T00:21:41.470Z,10.17
2022-10-13T00:24:13.949Z,10.02
2022-10-13T00:26:43.726Z,10.37
2022-10-13T00:29:16.058Z,10.40
2022-10-13T00:31:45.951Z,10.03
2022-10-13T00:34:15.817Z,9.37
2022-10-13T00:36:45.563Z,9.40
2022-10-13T00:39:15.369Z,10.30
2022-10-13T00:41:45.077Z,10.70
2022-10-13T00:44:44.630Z,10.70
2022-10-13T00:47:17.002Z,10.35
2022-10-13T00:49:47.139Z,10.20
2022-10-13T00:52:19.539Z,9.95
2022-10-13T00:54:50.296Z,9.80
2022-10-13T00:57:22.480Z,10.57
2022-10-13T00:59:52.687Z,11.40
2022-10-13T01:02:26.892Z,10.00
2022-10-13T01:04:58.036Z,9.82
2022-10-13T01:07:28.108Z,9.98
2022-10-13T01:10:01.193Z,10.00
2022-10-13T01:12:43.838Z,10.32
2022-10-13T01:15:20.383Z,10.85
2022-10-13T01:18:01.213Z,10.60
2022-10-13T01:20:55.911Z,10.70
2022-10-13T01:23:58.562Z,10.53
2022-10-13T01:26:55.257Z,11.00
2022-10-13T01:29:49.356Z,11.47
2022-10-13T01:32:31.008Z,10.97
2022-10-13T01:35:08.911Z,10.85
2022-10-13T01:37:47.301Z,11.17
2022-10-13T01:40:23.692Z,11.23
2022-10-13T01:42:59.329Z,10.67
2022-10-13T01:45:33.390Z,11.27
2022-10-13T01:48:08.683Z,11.53
2022-10-13T01:50:40.142Z,12.40
2022-10-13T01:53:11.573Z,11.83
2022-10-13T01:55:52.829Z,11.47
2022-10-13T01:58:23.234Z,10.97
2022-10-13T02:01:03.303Z,9.87
2022-10-13T02:03:46.174Z,11.67
2022-10-13T02:06:22.909Z,11.40
2022-10-13T02:09:01.397Z,11.93
2022-10-13T02:11:31.586Z,10.75
2022-10-13T02:14:06.441Z,11.47
2022-10-13T02:16:41.098Z,11.57
2022-10-13T02:19:18.106Z,10.87
2022-10-13T02:21:49.058Z,11.32
2022-10-13T02:24:19.277Z,11.18
2022-10-13T02:26:49.510Z,12.02
2022-10-13T02:29:20.596Z,10.95
2022-10-13T02:31:50.684Z,12.43
2022-10-13T02:34:23.093Z,11.18
2022-10-13T02:36:52.871Z,12.20
2022-10-13T02:39:22.650Z,13.18
2022-10-13T02:41:52.382Z,11.67
2022-10-13T02:44:22.121Z,11.93
2022-10-13T02:46:51.954Z,11.43
2022-10-13T02:49:24.329Z,11.82
2022-10-13T02:51:54.210Z,11.70
2022-10-13T02:54:23.964Z,11.03
2022-10-13T02:56:53.667Z,10.17
2022-10-13T02:59:23.468Z,12.97
2022-10-13T03:01:53.206Z,11.55
2022-10-13T03:04:25.578Z,10.90
2022-10-13T03:06:55.348Z,11.88
2022-10-13T03:09:25.096Z,11.53
2022-10-13T03:11:54.801Z,11.82
2022-10-13T03:14:24.578Z,10.70
2022-10-13T03:16:54.318Z,14.27
2022-10-13T03:19:26.957Z,12.03
2022-10-13T03:21:56.720Z,11.40
2022-10-13T03:24:26.723Z,11.80
2022-10-13T03:26:56.462Z,11.27
2022-10-13T03:29:26.244Z,10.73
2022-10-13T03:32:10.977Z,12.40
2022-10-13T03:34:43.362Z,12.40
2022-10-13T03:37:13.104Z,11.35
2022-10-13T03:39:42.857Z,11.40
2022-10-13T03:42:12.999Z,11.83
2022-10-13T03:44:42.881Z,11.45
2022-10-13T03:47:12.600Z,11.40
2022-10-13T03:49:45.052Z,11.20
2022-10-13T03:52:14.777Z,12.18
2022-10-13T03:54:44.690Z,10.57
2022-10-13T03:57:14.489Z,11.40
2022-10-13T03:59:44.896Z,11.63
2022-10-13T04:02:14.706Z,13.82
2022-10-13T04:04:47.091Z,11.95
2022-10-13T04:07:16.964Z,12.60
2022-10-13T04:09:46.792Z,11.60
2022-10-13T04:12:20.574Z,12.03
2022-10-13T04:14:50.970Z,11.55
2022-10-13T04:17:20.725Z,11.90
2022-10-13T04:19:53.156Z,12.35
2022-10-13T04:22:23.183Z,10.67
2022-10-13T04:24:53.149Z,11.80
2022-10-13T04:27:23.725Z,11.60
2022-10-13T04:29:53.475Z,11.60
2022-10-13T04:32:23.223Z,12.03
2022-10-13T04:34:55.590Z,11.37
2022-10-13T04:37:25.428Z,11.80
2022-10-13T04:39:55.177Z,12.23
2022-10-13T04:42:25.400Z,12.10
2022-10-13T04:44:55.196Z,11.75
2022-10-13T04:47:25.415Z,11.73
2022-10-13T04:49:57.864Z,12.13
2022-10-13T04:52:27.653Z,12.82
2022-10-13T04:54:57.397Z,13.43
2022-10-13T04:57:27.229Z,13.45
2022-10-13T04:59:57.095Z,12.63
2022-10-13T05:02:27.333Z,11.97
2022-10-13T05:04:59.730Z,12.73
2022-10-13T05:07:29.570Z,12.55
2022-10-13T05:09:59.441Z,13.03
2022-10-13T05:12:29.361Z,13.15
2022-10-13T05:15:00.099Z,14.03
2022-10-13T05:17:35.328Z,13.48
2022-10-13T05:20:08.881Z,13.35
2022-10-13T05:22:38.682Z,13.30
2022-10-13T05:25:08.996Z,14.98
2022-10-13T05:27:39.082Z,13.70
2022-10-13T05:30:10.141Z,14.45
2022-10-13T05:32:39.888Z,14.40
2022-10-13T05:35:12.735Z,15.15
2022-10-13T05:37:42.602Z,13.07
2022-10-13T05:40:14.343Z,14.90
2022-10-13T05:42:44.778Z,14.77
2022-10-13T05:45:15.328Z,13.68
2022-10-13T05:47:45.102Z,14.80
2022-10-13T05:50:17.947Z,14.30
2022-10-13T05:52:48.324Z,14.13
2022-10-13T05:55:20.777Z,13.93
2022-10-13T05:57:54.150Z,13.97
2022-10-13T06:00:24.114Z,14.30
2022-10-13T06:02:58.029Z,14.52
2022-10-13T06:05:32.923Z,15.10
2022-10-13T06:08:03.199Z,16.73
2022-10-13T06:10:32.958Z,14.95
2022-10-13T06:13:02.670Z,14.37
2022-10-13T06:15:32.946Z,14.63
2022-10-13T06:18:02.907Z,13.25
2022-10-13T06:20:35.237Z,14.05
2022-10-13T06:23:05.150Z,15.85
2022-10-13T06:25:35.817Z,14.95
2022-10-13T06:28:05.618Z,14.88
2022-10-13T06:30:35.368Z,14.88
2022-10-13T06:33:05.129Z,14.13
2022-10-13T06:35:37.472Z,14.10
2022-10-13T06:38:07.211Z,13.90
2022-10-13T06:40:36.945Z,15.25
2022-10-13T06:43:07.222Z,15.50
2022-10-13T06:45:37.531Z,14.68
2022-10-13T06:48:07.938Z,14.43
2022-10-13T06:50:42.892Z,15.77
2022-10-13T06:53:12.902Z,15.98
2022-10-13T06:55:43.886Z,14.93
2022-10-13T06:58:15.638Z,15.13
2022-10-13T07:00:45.403Z,15.13
2022-10-13T07:03:15.368Z,13.77
2022-10-13T07:05:47.861Z,17.17
2022-10-13T07:08:17.700Z,16.02
2022-10-13T07:10:47.545Z,15.48
2022-10-13T07:13:17.374Z,17.05
2022-10-13T07:15:50.187Z,19.60
2022-10-13T07:18:20.026Z,17.55
2022-10-13T07:20:52.489Z,15.27
2022-10-13T07:23:22.248Z,15.55
2022-10-13T07:25:51.922Z,16.63
2022-10-13T07:28:22.024Z,15.37
2022-10-13T07:30:51.986Z,16.83
2022-10-13T07:33:21.940Z,17.60
2022-10-13T07:35:54.513Z,17.35
2022-10-13T07:38:24.322Z,16.70
2022-10-13T07:40:54.136Z,17.13
2022-10-13T07:43:23.890Z,18.75
2022-10-13T07:45:53.602Z,17.77
2022-10-13T07:50:56.057Z,16.23
2022-10-13T07:53:26.257Z,16.53
2022-10-13T07:55:56.089Z,18.15
2022-10-13T07:58:25.894Z,15.30
2022-10-13T08:00:59.654Z,19.13
2022-10-13T08:03:30.069Z,16.83
2022-10-13T08:06:05.476Z,18.25
2022-10-13T08:08:36.040Z,16.25
2022-10-13T08:11:07.154Z,18.83
2022-10-13T08:13:36.986Z,19.65
2022-10-13T08:16:07.351Z,18.23
2022-10-13T08:18:37.222Z,21.08
2022-10-13T08:21:39.261Z,19.15
2022-10-13T08:24:02.330Z,17.73
2022-10-13T08:26:32.757Z,17.70
2022-10-13T08:32:01.117Z,17.73
2022-10-13T08:34:31.008Z,21.15
2022-10-13T08:37:03.327Z,20.73
2022-10-13T08:39:33.345Z,20.42
2022-10-13T08:42:03.589Z,19.02
2022-10-13T08:47:38.561Z,18.13
2022-10-13T08:50:14.572Z,20.50
2022-10-13T08:52:55.547Z,19.92
2022-10-13T08:55:31.206Z,20.65
2022-10-13T08:58:01.460Z,22.02
2022-10-13T09:00:32.787Z,18.67
2022-10-13T09:03:18.963Z,21.05
2022-10-13T09:05:59.799Z,19.27
2022-10-13T09:08:37.282Z,21.15
2022-10-13T09:11:07.052Z,20.48
2022-10-13T09:13:36.781Z,20.67
2022-10-13T09:16:06.549Z,20.77
2022-10-13T09:18:37.777Z,20.30
2022-10-13T09:21:24.825Z,18.40
2022-10-13T09:24:09.217Z,21.23
2022-10-13T09:26:41.983Z,23.02
2022-10-13T09:29:12.426Z,21.35
2022-10-13T09:31:42.169Z,20.08
2022-10-13T09:34:19.126Z,24.85
2022-10-13T09:37:03.773Z,22.55
2022-10-13T09:39:36.892Z,24.10
2022-10-13T09:42:23.549Z,21.10
2022-10-13T09:45:01.473Z,22.02
2022-10-13T09:47:33.382Z,21.15
2022-10-13T09:50:07.650Z,20.73
2022-10-13T09:52:37.758Z,20.85
2022-10-13T09:55:32.668Z,20.33
2022-10-13T09:58:07.684Z,22.58
2022-10-13T10:00:39.812Z,19.63
2022-10-13T10:03:18.853Z,21.52
2022-10-13T10:05:53.916Z,19.95
2022-10-13T10:08:33.825Z,18.70
2022-10-13T10:11:16.503Z,19.67
2022-10-13T10:13:46.406Z,17.75
2022-10-13T10:16:22.829Z,17.83
2022-10-13T10:18:58.932Z,18.23
2022-10-13T10:21:37.695Z,18.33
2022-10-13T10:24:18.972Z,17.80
2022-10-13T10:26:57.401Z,16.42
2022-10-13T10:29:42.150Z,18.35
2022-10-13T10:32:25.984Z,16.13
2022-10-13T10:35:00.060Z,17.45
2022-10-13T10:37:48.825Z,16.25
2022-10-13T10:40:31.357Z,18.25
2022-10-13T10:43:29.265Z,15.82
2022-10-13T10:46:01.308Z,16.92
2022-10-13T10:48:41.116Z,17.25
2022-10-13T10:51:13.022Z,15.88
2022-10-13T10:53:52.540Z,16.77
2022-10-13T10:56:30.692Z,16.70
2022-10-13T10:59:18.760Z,15.18
2022-10-13T11:01:54.766Z,16.35
2022-10-13T11:04:40.355Z,17.60
2022-10-13T11:07:15.312Z,14.85
2022-10-13T11:10:21.501Z,17.17
2022-10-13T11:13:28.207Z,14.65
2022-10-13T11:16:00.573Z,18.20
2022-10-13T11:19:12.481Z,16.80
2022-10-13T11:22:24.547Z,14.00
2022-10-13T11:25:00.124Z,15.32
2022-10-13T11:27:46.489Z,14.07
2022-10-13T11:30:44.958Z,13.60
2022-10-13T11:33:53.932Z,14.35
2022-10-13T11:36:49.413Z,12.95
2022-10-13T11:39:55.648Z,12.93
2022-10-13T11:42:58.302Z,13.98
2022-10-13T11:45:50.301Z,12.23
2022-10-13T11:48:50.015Z,14.20
2022-10-13T11:51:33.083Z,12.35
2022-10-13T11:54:14.839Z,13.10
2022-10-13T11:57:04.053Z,10.63
2022-10-13T11:59:51.703Z,11.38
2022-10-13T12:05:54.118Z,12.05
2022-10-13T12:08:28.814Z,11.93
2022-10-13T12:17:14.947Z,10.55
2022-10-13T12:20:35.342Z,10.18
2022-10-13T12:23:11.083Z,8.23
2022-10-13T12:27:08.308Z,8.13
2022-10-13T12:33:41.212Z,6.25
2022-10-13T12:36:37.840Z,7.03
2022-10-13T12:39:15.029Z,5.15
2022-10-13T12:41:49.459Z,4.65
2022-10-13T12:44:35.849Z,6.13
2022-10-13T12:47:46.608Z,5.13
2022-10-13T12:50:37.215Z,4.90
2022-10-13T12:53:20.742Z,4.40
2022-10-13T12:56:00.911Z,4.25
2022-10-13T12:58:36.373Z,4.53
2022-10-13T13:01:39.006Z,3.40
2022-10-13T13:04:52.552Z,3.55
2022-10-13T13:07:34.101Z,3.83
2022-10-13T13:10:20.045Z,3.03
2022-10-13T13:12:50.897Z,1.70
2022-10-13T13:15:24.189Z,2.38
2022-10-13T13:17:59.062Z,2.15
2022-10-13T13:20:34.971Z,2.10
2022-10-13T13:23:14.924Z,1.77
2022-10-13T13:25:45.060Z,1.90
2022-10-13T13:28:18.918Z,1.95
2022-10-13T13:30:49.207Z,1.83
2022-10-13T13:33:19.314Z,2.03
2022-10-13T13:35:52.117Z,1.90
2022-10-13T13:38:39.913Z,3.53
2022-10-13T13:41:11.591Z,1.63
2022-10-13T13:43:41.877Z,1.80
2022-10-13T13:46:17.877Z,1.92
2022-10-13T13:49:05.359Z,1.52
2022-10-13T13:51:38.065Z,1.60
2022-10-13T13:54:08.508Z,2.03
2022-10-13T13:56:39.249Z,2.10
2022-10-13T14:01:55.660Z,1.85
2022-10-13T14:04:25.820Z,1.52
2022-10-13T14:06:58.525Z,1.48
2022-10-13T14:09:34.655Z,1.38
2022-10-13T14:12:04.675Z,1.42
2022-10-13T14:14:52.770Z,1.45
2022-10-13T14:17:25.915Z,1.60
2022-10-13T14:19:59.998Z,1.00
2022-10-13T14:22:34.016Z,1.67
2022-10-13T14:25:08.555Z,1.85
2022-10-13T14:27:43.104Z,1.65
2022-10-13T14:30:14.587Z,2.15
2022-10-13T14:32:44.706Z,1.50
2022-10-13T14:35:14.652Z,1.10
2022-10-13T14:37:47.253Z,1.52
2022-10-13T14:40:17.204Z,1.73
2022-10-13T14:42:47.202Z,1.17
2022-10-13T14:45:18.071Z,1.67
2022-10-13T14:47:47.971Z,1.75
2022-10-13T14:50:17.992Z,1.50
2022-10-13T14:52:50.574Z,1.40
2022-10-13T14:55:20.690Z,1.48
2022-10-13T14:57:51.474Z,1.80
2022-10-13T15:00:21.567Z,1.65
2022-10-13T15:02:51.559Z,1.45
2022-10-13T15:05:21.452Z,1.60
2022-10-13T15:07:54.095Z,2.00
2022-10-13T15:10:23.978Z,1.60
2022-10-13T15:12:53.760Z,1.52
2022-10-13T15:15:23.570Z,1.70
2022-10-13T15:17:53.393Z,1.90
2022-10-13T15:20:23.116Z,2.03
2022-10-13T15:22:56.303Z,1.35
2022-10-13T15:25:26.034Z,1.52
2022-10-13T15:27:55.735Z,1.55
2022-10-13T15:30:26.042Z,1.75
2022-10-13T15:32:55.784Z,1.50
2022-10-13T15:35:25.486Z,1.40
2022-10-13T15:37:57.853Z,1.70
2022-10-13T15:40:27.970Z,1.40
2022-10-13T15:42:57.720Z,1.35
2022-10-13T15:45:27.505Z,1.42
2022-10-13T15:47:57.833Z,1.65
2022-10-13T15:50:27.760Z,1.40
2022-10-13T15:53:00.198Z,1.58
2022-10-13T15:55:30.165Z,1.52
2022-10-13T15:58:00.212Z,1.55
2022-10-13T16:00:31.239Z,1.40
2022-10-13T16:03:01.104Z,1.30
2022-10-13T16:05:30.980Z,1.23
2022-10-13T16:08:03.418Z,1.17
2022-10-13T16:10:33.317Z,1.20
2022-10-13T16:13:03.229Z,1.40
2022-10-13T16:15:33.058Z,1.42
2022-10-13T16:18:02.897Z,1.60
2022-10-13T16:20:35.564Z,1.50
2022-10-13T16:23:08.478Z,1.40
2022-10-13T16:25:42.042Z,1.40
2022-10-13T16:28:11.796Z,1.30
2022-10-13T16:30:41.720Z,1.25
2022-10-13T16:33:11.886Z,1.25
2022-10-13T16:35:41.788Z,1.20
2022-10-13T16:38:14.287Z,1.38
2022-10-13T16:40:44.234Z,1.10
2022-10-13T16:43:14.067Z,1.30
2022-10-13T16:45:58.991Z,1.67
2022-10-13T16:48:29.307Z,1.73
2022-10-13T16:50:59.146Z,1.65
2022-10-13T16:53:31.562Z,2.22
2022-10-13T16:56:01.375Z,2.28
2022-10-13T16:58:31.109Z,1.83
2022-10-13T17:01:05.586Z,1.90
2022-10-13T17:03:35.522Z,2.22
2022-10-13T17:06:05.252Z,2.10
2022-10-13T17:08:37.690Z,2.05
2022-10-13T17:11:08.572Z,2.13
2022-10-13T17:13:38.965Z,1.77
2022-10-13T17:16:10.135Z,1.83
2022-10-13T17:18:39.886Z,1.88
2022-10-13T17:21:11.221Z,2.17
2022-10-13T17:23:48.417Z,1.83
2022-10-13T17:26:20.952Z,2.20
2022-10-13T17:28:50.771Z,1.80
2022-10-13T17:31:23.013Z,2.03
2022-10-13T17:33:53.678Z,2.42
2022-10-13T17:36:27.092Z,2.55
2022-10-13T17:39:04.540Z,2.28
2022-10-13T17:41:34.512Z,2.10
2022-10-13T17:44:04.606Z,2.03
2022-10-13T17:46:38.066Z,2.25
2022-10-13T17:49:09.506Z,2.03
2022-10-13T17:51:39.259Z,2.03
2022-10-13T17:54:16.108Z,2.28
2022-10-13T17:56:47.598Z,2.47
2022-10-13T17:59:20.178Z,2.40
2022-10-13T18:01:50.323Z,2.45
2022-10-13T18:04:22.484Z,2.88
2022-10-13T18:06:52.233Z,2.60
2022-10-13T18:09:25.399Z,2.50
2022-10-13T18:11:57.149Z,2.10
2022-10-13T18:14:27.867Z,2.35
2022-10-13T18:16:57.629Z,2.20
2022-10-13T18:19:27.358Z,2.10
2022-10-13T18:21:57.095Z,2.58
2022-10-13T18:24:29.465Z,2.20
2022-10-13T18:26:59.248Z,2.47
2022-10-13T18:29:29.164Z,2.50
2022-10-13T18:31:59.233Z,2.53
2022-10-13T18:34:29.211Z,2.10
2022-10-13T18:36:59.024Z,2.38
2022-10-13T18:39:34.243Z,2.45
2022-10-13T18:42:04.211Z,2.17
2022-10-13T18:44:33.921Z,2.20
2022-10-13T18:47:03.692Z,2.67
2022-10-13T18:49:36.170Z,2.47
2022-10-13T18:52:06.574Z,2.25
2022-10-13T18:54:38.945Z,2.47
2022-10-13T18:57:08.717Z,2.55
2022-10-13T18:59:38.952Z,2.85
2022-10-13T19:02:08.761Z,3.03
2022-10-13T19:04:38.993Z,3.05
2022-10-13T19:07:08.994Z,3.10
2022-10-13T19:09:41.309Z,3.33
2022-10-13T19:12:11.447Z,2.97
2022-10-13T19:14:41.298Z,3.25
2022-10-13T19:17:11.021Z,3.13
2022-10-13T19:19:41.621Z,2.80
2022-10-13T19:22:11.404Z,4.00
2022-10-13T19:24:43.755Z,2.92
2022-10-13T19:27:13.452Z,3.38
2022-10-13T19:29:43.329Z,3.10
2022-10-13T19:32:13.107Z,3.40
2022-10-13T19:34:42.788Z,3.38
2022-10-13T19:37:12.525Z,4.50
2022-10-13T19:39:44.907Z,4.53
2022-10-13T19:42:14.632Z,5.20
2022-10-13T19:44:44.336Z,4.32
2022-10-13T19:47:14.617Z,4.80
2022-10-13T19:49:44.337Z,4.38
2022-10-13T19:52:14.130Z,4.45
2022-10-13T19:54:46.520Z,3.83
2022-10-13T19:57:16.235Z,4.05
2022-10-13T19:59:47.811Z,3.70
2022-10-13T20:02:17.733Z,3.97
2022-10-13T20:04:47.869Z,3.35
2022-10-13T20:07:17.628Z,3.80
2022-10-13T20:09:49.976Z,3.78
2022-10-13T20:12:19.689Z,4.25
2022-10-13T20:14:49.381Z,4.43
2022-10-13T20:17:19.558Z,4.10
2022-10-13T20:19:49.666Z,4.00
2022-10-13T20:22:19.386Z,4.32
2022-10-13T20:24:52.005Z,3.93
2022-10-13T20:27:21.964Z,4.70
2022-10-13T20:29:51.981Z,4.13
2022-10-13T20:32:21.783Z,4.20
2022-10-13T20:34:51.563Z,3.60
2022-10-13T20:37:21.669Z,3.85
2022-10-13T20:39:54.230Z,4.05
2022-10-13T20:42:23.941Z,3.88
2022-10-13T20:44:53.784Z,3.47
2022-10-13T20:47:23.840Z,4.43
2022-10-13T20:49:53.896Z,3.92
2022-10-13T20:52:23.653Z,3.83
2022-10-13T20:54:56.082Z,3.63
2022-10-13T20:57:25.840Z,4.03
2022-10-13T20:59:55.582Z,3.60
2022-10-13T21:02:25.313Z,3.78
2022-10-13T21:04:55.009Z,4.25
2022-10-13T21:07:24.804Z,4.15
2022-10-13T21:09:57.108Z,5.45
2022-10-13T21:12:26.904Z,6.13
2022-10-13T21:14:56.629Z,7.97
2022-10-13T21:17:26.406Z,8.60
2022-10-13T21:19:56.114Z,8.90
2022-10-13T21:22:25.926Z,9.50
2022-10-13T21:24:58.482Z,10.45
2022-10-13T21:27:28.185Z,9.93
2022-10-13T21:29:57.913Z,9.48
2022-10-13T21:32:27.614Z,9.85
2022-10-13T21:34:57.350Z,9.40
2022-10-13T21:37:27.054Z,8.48
2022-10-13T21:39:59.383Z,8.57
2022-10-13T21:42:31.786Z,7.68
2022-10-13T21:45:02.432Z,6.97
2022-10-13T21:47:33.018Z,6.88
2022-10-13T21:50:03.077Z,7.35
2022-10-13T21:52:32.850Z,6.95
2022-10-13T21:55:05.448Z,6.75
2022-10-13T21:57:35.153Z,6.30
2022-10-13T22:00:04.871Z,5.95
2022-10-13T22:02:34.791Z,6.63
2022-10-13T22:05:04.606Z,6.95
2022-10-13T22:07:34.385Z,6.85
2022-10-13T22:10:07.526Z,7.20
2022-10-13T22:12:37.277Z,6.75
2022-10-13T22:15:07.832Z,7.07
2022-10-13T22:17:37.612Z,6.85
2022-10-13T22:20:08.131Z,6.18
2022-10-13T22:22:38.242Z,6.30
2022-10-13T22:25:11.762Z,6.28
2022-10-13T22:27:41.470Z,6.15
2022-10-13T22:30:12.350Z,6.65
2022-10-13T22:32:42.041Z,6.22
2022-10-13T22:35:12.309Z,5.80
2022-10-13T22:37:42.050Z,6.00
2022-10-13T22:40:15.242Z,5.53
2022-10-13T22:42:45.085Z,5.20
2022-10-13T22:45:14.792Z,5.43
2022-10-13T22:47:44.587Z,5.20
2022-10-13T22:50:14.315Z,5.70
2022-10-13T22:52:44.082Z,5.00
2022-10-13T22:55:16.657Z,5.40
2022-10-13T22:57:46.344Z,5.47
2022-10-13T23:00:17.454Z,5.70
2022-10-13T23:02:47.185Z,5.68
2022-10-13T23:05:17.069Z,5.20
2022-10-13T23:07:46.808Z,5.40
2022-10-13T23:10:19.165Z,5.40
2022-10-13T23:12:48.894Z,5.57
2022-10-13T23:15:19.051Z,5.75
2022-10-13T23:17:48.765Z,5.55
2022-10-13T23:20:18.799Z,5.45
2022-10-13T23:22:48.502Z,5.55
2022-10-13T23:25:21.465Z,5.63
2022-10-13T23:27:51.237Z,6.43
2022-10-13T23:30:20.970Z,6.35
2022-10-13T23:32:50.682Z,5.25
2022-10-13T23:35:20.657Z,5.47
2022-10-13T23:37:50.386Z,6.13
2022-10-13T23:40:22.985Z,6.50
2022-10-13T23:42:52.810Z,5.78
2022-10-13T23:45:22.518Z,5.75
2022-10-13T23:47:52.541Z,6.15
2022-10-13T23:50:22.302Z,6.93
2022-10-13T23:52:52.034Z,6.70
2022-10-13T23:55:24.617Z,6.50
2022-10-13T23:57:54.399Z,6.13
